Time;durP1;ratioP1;P1;durP2;ratioP2;P2;SDS_P1;SDS_P2;PMS_P1;PMS_P2;Temp;Humidity;BMP_temperature;BMP_pressure;BME280_temperature;BME280_humidity;BME280_pressure;Samples;Min_cycle;Max_cycle;Signal;HPM_P1;HPM_P2
2023/07/10 00:00:23;;;;;;;14.25;9.82;;;18.60;99.90;;;;;;5059180;28;20045;-72
2023/07/10 00:02:51;;;;;;;12.65;9.35;;;18.60;99.90;;;;;;5076155;28;20041;-72
2023/07/10 00:05:21;;;;;;;15.07;9.60;;;18.60;99.90;;;;;;5058903;28;20492;-73
2023/07/10 00:07:47;;;;;;;19.33;9.10;;;18.60;99.90;;;;;;5058707;28;20107;-73
2023/07/10 00:10:15;;;;;;;15.05;9.50;;;18.60;99.90;;;;;;5059107;28;20044;-73
2023/07/10 00:12:44;;;;;;;11.95;8.73;;;18.60;99.90;;;;;;5076838;28;20045;-73
2023/07/10 00:15:21;;;;;;;11.38;8.18;;;18.60;99.90;;;;;;5059535;28;20048;-73
2023/07/10 00:17:51;;;;;;;11.65;8.35;;;18.60;99.90;;;;;;5076213;28;20040;-73
2023/07/10 00:20:37;;;;;;;11.40;8.10;;;18.60;99.90;;;;;;5076609;28;20051;-73
2023/07/10 00:23:03;;;;;;;9.23;7.13;;;18.60;99.90;;;;;;5058070;28;20052;-73
2023/07/10 00:25:29;;;;;;;12.18;7.97;;;18.60;99.90;;;;;;5057462;28;20052;-72
2023/07/10 00:27:54;;;;;;;11.82;7.80;;;18.60;99.90;;;;;;5058373;28;20127;-73
2023/07/10 00:30:24;;;;;;;10.07;7.45;;;18.60;99.90;;;;;;5076677;28;20067;-73
2023/07/10 00:32:52;;;;;;;9.73;7.32;;;18.60;99.90;;;;;;5057554;28;20056;-73
2023/07/10 00:35:24;;;;;;;11.10;7.50;;;18.60;99.90;;;;;;5058993;28;20059;-72
2023/07/10 00:38:03;;;;;;;13.65;8.10;;;18.50;99.90;;;;;;5058515;28;20111;-73
2023/07/10 00:40:34;;;;;;;12.18;8.23;;;18.50;99.90;;;;;;5059084;28;20052;-73
2023/07/10 00:43:22;;;;;;;11.68;7.85;;;18.50;99.90;;;;;;5076513;28;20123;-72
2023/07/10 00:45:53;;;;;;;10.73;7.90;;;18.50;99.90;;;;;;5071261;28;20403;-73
2023/07/10 00:48:37;;;;;;;10.95;7.95;;;18.40;99.90;;;;;;5058469;28;20463;-73
2023/07/10 00:51:29;;;;;;;12.02;8.13;;;18.40;99.90;;;;;;5057325;28;20052;-72
2023/07/10 00:53:56;;;;;;;11.07;7.85;;;18.40;99.90;;;;;;5056499;28;20131;-72
2023/07/10 00:56:23;;;;;;;11.05;7.60;;;18.30;99.90;;;;;;5075901;28;20113;-72
2023/07/10 00:58:52;;;;;;;10.48;7.53;;;18.20;99.90;;;;;;5076130;28;20048;-72
2023/07/10 01:01:22;;;;;;;9.48;6.47;;;18.20;99.90;;;;;;5057001;28;20056;-72
2023/07/10 01:03:51;;;;;;;13.32;7.72;;;18.10;99.90;;;;;;5074947;28;20055;-72
2023/07/10 01:06:25;;;;;;;8.60;6.10;;;18.10;99.90;;;;;;5057400;28;20098;-72
2023/07/10 01:09:03;;;;;;;9.45;6.53;;;18.10;99.90;;;;;;5057498;28;20560;-72
2023/07/10 01:11:30;;;;;;;9.07;6.75;;;18.00;99.90;;;;;;5075339;28;20045;-72
2023/07/10 01:13:58;;;;;;;10.95;5.97;;;18.00;99.90;;;;;;5056520;28;20044;-73
2023/07/10 01:16:25;;;;;;;11.32;5.95;;;17.90;99.90;;;;;;5057329;28;20048;-72
2023/07/10 01:18:52;;;;;;;7.22;5.57;;;17.90;99.90;;;;;;5057564;28;20044;-72
2023/07/10 01:21:34;;;;;;;8.32;5.72;;;17.80;99.90;;;;;;5074767;28;20472;-72
2023/07/10 01:24:05;;;;;;;9.82;5.03;;;17.80;99.90;;;;;;5076247;28;20089;-72
2023/07/10 01:26:34;;;;;;;8.93;4.28;;;17.70;99.90;;;;;;5055327;28;20073;-73
2023/07/10 01:29:01;;;;;;;7.43;3.85;;;17.60;99.90;;;;;;5054418;28;20046;-73
2023/07/10 01:31:28;;;;;;;7.93;3.72;;;17.60;99.90;;;;;;5057165;28;20504;-72
2023/07/10 01:33:59;;;;;;;6.18;4.10;;;17.60;99.90;;;;;;5075269;28;20060;-72
2023/07/10 01:36:29;;;;;;;7.18;3.90;;;17.60;99.90;;;;;;5075488;28;20136;-73
2023/07/10 01:39:04;;;;;;;5.43;3.75;;;17.50;99.90;;;;;;5056467;28;20131;-72
2023/07/10 01:41:41;;;;;;;6.63;3.40;;;17.50;99.90;;;;;;5056044;28;20175;-72
2023/07/10 01:44:25;;;;;;;5.25;3.20;;;17.50;99.90;;;;;;5075612;28;20404;-72
2023/07/10 01:46:51;;;;;;;6.10;2.85;;;17.50;99.90;;;;;;5056618;28;20059;-72
2023/07/10 01:49:25;;;;;;;4.28;2.30;;;17.40;99.90;;;;;;5074365;28;20052;-73
2023/07/10 01:51:53;;;;;;;5.50;2.53;;;17.30;99.90;;;;;;5056961;28;20105;-72
2023/07/10 01:54:24;;;;;;;7.45;2.20;;;17.30;99.90;;;;;;5074771;28;20084;-72
2023/07/10 01:56:50;;;;;;;7.72;2.40;;;17.30;99.90;;;;;;5074031;28;20523;-72
2023/07/10 01:59:19;;;;;;;5.47;2.30;;;17.30;99.90;;;;;;5058416;28;20484;-72
2023/07/10 02:01:45;;;;;;;5.60;2.35;;;17.90;99.90;;;;;;5056207;28;20272;-73
2023/07/10 02:04:11;;;;;;;4.97;2.00;;;17.20;99.90;;;;;;5056929;28;20408;-72
2023/07/10 02:06:38;;;;;;;4.35;2.20;;;17.20;99.90;;;;;;5074926;28;20048;-72
2023/07/10 02:09:04;;;;;;;5.72;2.22;;;17.20;99.90;;;;;;5057388;28;20044;-73
2023/07/10 02:11:30;;;;;;;5.82;2.10;;;17.10;99.90;;;;;;5074781;28;20040;-72
2023/07/10 02:13:55;;;;;;;4.05;2.22;;;17.10;99.90;;;;;;5056374;28;20049;-72
2023/07/10 02:16:21;;;;;;;4.50;2.35;;;17.00;99.90;;;;;;5055388;28;20086;-72
2023/07/10 02:18:51;;;;;;;4.18;2.03;;;17.00;99.90;;;;;;5074236;28;20048;-72
2023/07/10 02:21:17;;;;;;;4.45;2.13;;;17.00;99.90;;;;;;5058012;28;20048;-73
2023/07/10 02:23:47;;;;;;;3.47;1.90;;;17.00;99.90;;;;;;5055558;28;20139;-73
2023/07/10 02:26:14;;;;;;;6.00;2.35;;;18.20;99.90;;;;;;5074605;28;20127;-73
2023/07/10 02:28:40;;;;;;;5.65;2.40;;;16.80;99.90;;;;;;5056532;28;20048;-72
2023/07/10 02:31:07;;;;;;;4.28;2.47;;;16.80;99.90;;;;;;5056054;28;20063;-72
2023/07/10 02:33:34;;;;;;;5.72;2.40;;;16.80;99.90;;;;;;5056150;28;20095;-73
2023/07/10 02:36:00;;;;;;;4.53;2.75;;;16.70;99.90;;;;;;5056697;28;20132;-72
2023/07/10 02:38:27;;;;;;;6.35;3.33;;;16.60;99.90;;;;;;5074015;28;20488;-72
2023/07/10 02:40:54;;;;;;;5.72;2.70;;;16.60;99.90;;;;;;5074217;28;20460;-72
2023/07/10 02:43:19;;;;;;;6.47;3.08;;;16.60;99.90;;;;;;5074213;28;20369;-72
2023/07/10 02:45:45;;;;;;;5.95;3.17;;;16.60;99.90;;;;;;5073608;28;20067;-72
2023/07/10 02:48:11;;;;;;;4.22;2.55;;;16.50;99.90;;;;;;5056296;28;20476;-72
2023/07/10 02:50:37;;;;;;;6.47;2.88;;;16.50;99.90;;;;;;5073758;28;20033;-72
2023/07/10 02:53:03;;;;;;;6.47;2.55;;;16.50;99.90;;;;;;5073601;28;20416;-72
2023/07/10 02:55:29;;;;;;;6.00;2.90;;;16.50;99.90;;;;;;5055756;28;20051;-72
2023/07/10 02:57:59;;;;;;;5.07;3.05;;;16.50;99.90;;;;;;5073793;28;20052;-72
2023/07/10 03:00:24;;;;;;;5.63;2.85;;;16.40;99.90;;;;;;5055376;28;20037;-72
2023/07/10 03:02:53;;;;;;;5.72;2.80;;;16.50;99.90;;;;;;5055115;28;20583;-72
2023/07/10 03:05:19;;;;;;;9.13;3.30;;;16.50;99.90;;;;;;5056340;28;20048;-72
2023/07/10 03:07:45;;;;;;;5.13;3.17;;;16.50;99.90;;;;;;5072885;28;20086;-72
2023/07/10 03:10:11;;;;;;;4.82;3.10;;;16.50;99.90;;;;;;5073772;28;20082;-72
2023/07/10 03:12:36;;;;;;;4.72;2.80;;;16.50;99.90;;;;;;5056186;28;20028;-72
2023/07/10 03:15:03;;;;;;;5.53;2.90;;;16.50;99.90;;;;;;5072080;28;20047;-72
2023/07/10 03:17:29;;;;;;;4.97;2.92;;;16.60;99.90;;;;;;5073410;28;20048;-72
2023/07/10 03:19:54;;;;;;;5.20;2.78;;;16.60;99.90;;;;;;5055594;28;20051;-72
2023/07/10 03:22:20;;;;;;;5.25;2.75;;;16.60;99.90;;;;;;5072790;28;20044;-73
2023/07/10 03:24:49;;;;;;;5.05;3.03;;;16.60;99.90;;;;;;5073166;28;20045;-72
2023/07/10 03:27:14;;;;;;;5.40;3.17;;;16.60;99.90;;;;;;5054605;28;20089;-72
2023/07/10 03:29:40;;;;;;;6.80;3.40;;;16.70;99.90;;;;;;5055439;28;20040;-72
2023/07/10 03:32:09;;;;;;;5.95;3.45;;;16.70;99.90;;;;;;5054674;28;20406;-72
2023/07/10 03:34:35;;;;;;;6.40;3.25;;;16.70;99.90;;;;;;5054000;28;20059;-72
2023/07/10 03:37:04;;;;;;;5.38;3.20;;;16.70;99.90;;;;;;5055376;28;20052;-72
2023/07/10 03:39:30;;;;;;;5.88;3.65;;;16.70;99.90;;;;;;5073394;28;20107;-72
2023/07/10 03:41:55;;;;;;;6.35;3.40;;;16.60;99.90;;;;;;5072321;28;20066;-72
2023/07/10 03:44:21;;;;;;;6.55;3.58;;;16.60;99.90;;;;;;5073381;28;20533;-72
2023/07/10 03:46:49;;;;;;;6.45;3.30;;;16.60;99.90;;;;;;5073514;28;20045;-72
2023/07/10 03:49:15;;;;;;;9.40;3.67;;;16.60;99.90;;;;;;5072732;28;20106;-72
2023/07/10 03:51:41;;;;;;;7.50;3.60;;;16.60;99.90;;;;;;5072979;28;20044;-72
2023/07/10 03:54:10;;;;;;;7.32;3.60;;;16.70;99.90;;;;;;5054435;28;20063;-72
2023/07/10 03:56:41;;;;;;;8.07;3.67;;;16.70;99.90;;;;;;5054173;28;20051;-72
2023/07/10 03:59:09;;;;;;;6.38;3.40;;;16.70;99.90;;;;;;5055594;28;20488;-72
2023/07/10 04:01:35;;;;;;;12.10;3.72;;;16.70;99.90;;;;;;5053654;28;20043;-73
2023/07/10 04:04:00;;;;;;;9.25;3.33;;;16.70;99.90;;;;;;5040623;28;20048;-71
2023/07/10 04:06:26;;;;;;;6.90;3.40;;;16.80;99.90;;;;;;5041964;28;20044;-71
2023/07/10 04:08:52;;;;;;;9.63;4.13;;;16.80;99.90;;;;;;5072879;28;20056;-71
2023/07/10 04:11:20;;;;;;;8.05;3.55;;;16.80;99.90;;;;;;5072560;28;20392;-71
2023/07/10 04:13:50;;;;;;;8.25;4.18;;;16.80;99.90;;;;;;5055332;28;20036;-71
2023/07/10 04:16:21;;;;;;;7.97;3.50;;;16.80;99.90;;;;;;5054684;28;20052;-72
2023/07/10 04:18:48;;;;;;;7.50;3.50;;;16.80;99.90;;;;;;5055360;28;20053;-71
2023/07/10 04:21:20;;;;;;;6.25;3.63;;;16.90;99.90;;;;;;5072526;28;20503;-71
2023/07/10 04:23:46;;;;;;;9.77;3.70;;;16.90;99.90;;;;;;5072004;28;20441;-71
2023/07/10 04:26:16;;;;;;;7.30;3.60;;;16.90;99.90;;;;;;5056204;28;20056;-72
2023/07/10 04:28:47;;;;;;;9.60;3.38;;;16.90;99.90;;;;;;5057976;28;20530;-72
2023/07/10 04:31:13;;;;;;;9.00;3.53;;;17.00;99.90;;;;;;5075793;28;20039;-72
2023/07/10 04:33:38;;;;;;;7.20;3.50;;;17.00;99.90;;;;;;5060908;28;20492;-72
2023/07/10 04:36:04;;;;;;;7.75;3.60;;;17.00;99.90;;;;;;5032988;28;20041;-72
2023/07/10 04:38:30;;;;;;;9.73;3.60;;;17.10;99.90;;;;;;5046091;28;20056;-72
2023/07/10 04:41:00;;;;;;;7.90;3.60;;;17.10;99.90;;;;;;5037859;28;20515;-72
2023/07/10 04:43:30;;;;;;;7.55;3.53;;;17.10;99.90;;;;;;5037383;28;20091;-72
2023/07/10 04:45:57;;;;;;;7.47;3.58;;;17.10;99.90;;;;;;5037591;28;20053;-72
2023/07/10 04:48:24;;;;;;;6.35;3.70;;;17.20;99.90;;;;;;5037204;28;20041;-72
2023/07/10 04:50:52;;;;;;;8.18;3.72;;;17.20;99.90;;;;;;5054904;28;20049;-72
2023/07/10 04:53:19;;;;;;;8.63;3.58;;;17.20;99.90;;;;;;5037101;28;20049;-73
2023/07/10 04:55:47;;;;;;;7.68;3.83;;;17.20;99.90;;;;;;5037018;28;20401;-73
2023/07/10 04:58:18;;;;;;;6.47;3.72;;;17.00;99.90;;;;;;5055215;28;20566;-73
2023/07/10 05:00:52;;;;;;;8.85;3.92;;;17.40;99.90;;;;;;5036682;28;20080;-73
2023/07/10 05:03:17;;;;;;;7.13;3.63;;;17.40;99.90;;;;;;5037264;28;20053;-73
2023/07/10 05:05:57;;;;;;;7.60;3.90;;;17.40;99.90;;;;;;5036440;28;20052;-72
2023/07/10 05:08:25;;;;;;;6.50;3.95;;;17.50;99.90;;;;;;5020539;28;20045;-73
2023/07/10 05:10:54;;;;;;;6.95;3.63;;;17.50;99.90;;;;;;5017762;28;20175;-72
2023/07/10 05:13:22;;;;;;;9.35;3.88;;;17.50;99.90;;;;;;5016515;28;20102;-72
2023/07/10 05:15:48;;;;;;;9.93;3.80;;;17.50;99.90;;;;;;5048586;28;20044;-72
2023/07/10 05:18:15;;;;;;;6.63;3.55;;;17.50;99.90;;;;;;5037551;28;20397;-73
2023/07/10 05:20:43;;;;;;;8.30;3.40;;;17.50;99.90;;;;;;5054551;28;20057;-72
2023/07/10 05:23:09;;;;;;;9.10;3.60;;;17.50;99.90;;;;;;5030013;28;22023;-72
2023/07/10 05:25:36;;;;;;;6.68;3.55;;;17.50;99.90;;;;;;5016983;28;20056;-72
2023/07/10 05:28:02;;;;;;;6.60;2.95;;;17.50;99.90;;;;;;5016356;28;20046;-72
2023/07/10 05:30:29;;;;;;;7.00;2.95;;;17.60;99.90;;;;;;5043826;28;20076;-77
2023/07/10 05:32:55;;;;;;;8.95;3.35;;;17.60;99.90;;;;;;5018605;28;20066;-77
2023/07/10 05:35:23;;;;;;;7.47;2.70;;;17.60;99.90;;;;;;5016366;28;20046;-75
2023/07/10 05:37:49;;;;;;;10.10;3.35;;;17.70;99.90;;;;;;5053924;28;20040;-72
2023/07/10 05:40:15;;;;;;;6.97;2.65;;;17.80;99.90;;;;;;5037127;28;20136;-75
2023/07/10 05:42:42;;;;;;;8.23;2.70;;;17.80;99.90;;;;;;5036313;28;20048;-75
2023/07/10 05:45:08;;;;;;;8.95;2.78;;;17.90;99.90;;;;;;5035904;28;20059;-74
2023/07/10 05:47:36;;;;;;;7.88;3.03;;;18.00;99.90;;;;;;5053009;28;20473;-76
2023/07/10 05:50:02;;;;;;;5.40;3.20;;;18.00;99.90;;;;;;5054605;28;20091;-76
2023/07/10 05:52:27;;;;;;;10.90;3.30;;;18.00;99.90;;;;;;5036805;28;20036;-75
2023/07/10 05:54:53;;;;;;;8.55;4.35;;;18.10;99.90;;;;;;5035569;28;20111;-78
2023/07/10 05:57:19;;;;;;;6.60;3.13;;;18.10;99.90;;;;;;5036191;28;20447;-79
2023/07/10 05:59:48;;;;;;;7.93;2.88;;;18.10;99.90;;;;;;5054708;28;20108;-79
2023/07/10 06:02:14;;;;;;;8.63;3.60;;;18.20;99.90;;;;;;5053239;28;20060;-81
2023/07/10 06:04:39;;;;;;;7.00;2.90;;;18.20;99.90;;;;;;5035865;28;20049;-82
2023/07/10 06:07:05;;;;;;;8.75;2.72;;;18.30;99.90;;;;;;5054658;28;20053;-76
2023/07/10 06:09:34;;;;;;;5.85;2.47;;;18.30;99.90;;;;;;5035132;28;20051;-76
2023/07/10 06:12:00;;;;;;;6.50;2.33;;;18.40;99.90;;;;;;5054225;28;20124;-76
2023/07/10 06:14:26;;;;;;;7.22;3.05;;;18.40;99.90;;;;;;5050171;28;20076;-72
2023/07/10 06:16:52;;;;;;;8.15;2.53;;;18.50;99.90;;;;;;5021717;28;20047;-73
2023/07/10 06:19:18;;;;;;;7.88;2.90;;;18.60;99.90;;;;;;5047105;28;20048;-73
2023/07/10 06:21:46;;;;;;;7.55;2.30;;;18.60;99.90;;;;;;5054222;28;20128;-74
2023/07/10 06:24:12;;;;;;;7.50;2.67;;;18.70;99.90;;;;;;5052833;28;20392;-76
2023/07/10 06:26:38;;;;;;;12.00;2.72;;;18.70;99.90;;;;;;5050395;28;20076;-76
2023/07/10 06:29:04;;;;;;;7.35;2.40;;;18.70;99.90;;;;;;5031382;28;20877;-72
2023/07/10 06:31:33;;;;;;;9.02;2.33;;;18.80;99.90;;;;;;5027419;28;20044;-73
2023/07/10 06:33:59;;;;;;;8.25;2.67;;;18.80;99.90;;;;;;5045579;28;20059;-73
2023/07/10 06:36:25;;;;;;;10.05;3.17;;;18.80;99.90;;;;;;5051890;28;20052;-74
2023/07/10 06:38:50;;;;;;;7.15;2.72;;;18.90;99.90;;;;;;5052722;28;20052;-74
2023/07/10 06:41:16;;;;;;;7.28;2.97;;;19.00;99.90;;;;;;5071052;28;20480;-74
2023/07/10 06:43:42;;;;;;;8.40;3.00;;;19.10;99.90;;;;;;5053868;28;20052;-73
2023/07/10 06:46:07;;;;;;;10.25;2.92;;;19.20;99.90;;;;;;5055238;28;20053;-72
2023/07/10 06:48:33;;;;;;;10.10;2.88;;;19.20;99.90;;;;;;5055968;28;20460;-72
2023/07/10 06:51:00;;;;;;;8.73;2.72;;;19.30;99.90;;;;;;5055356;28;20053;-74
2023/07/10 06:53:26;;;;;;;9.75;2.67;;;19.30;99.90;;;;;;5072982;28;20041;-71
2023/07/10 06:55:54;;;;;;;7.72;2.92;;;19.30;99.90;;;;;;5073911;28;20044;-71
2023/07/10 06:58:20;;;;;;;11.98;2.85;;;19.40;99.90;;;;;;5073891;28;20051;-71
2023/07/10 07:00:46;;;;;;;11.07;2.90;;;19.50;99.90;;;;;;5073442;28;20045;-72
2023/07/10 07:03:12;;;;;;;10.88;3.25;;;19.50;99.90;;;;;;5073514;28;20498;-72
2023/07/10 07:05:43;;;;;;;10.77;2.95;;;19.60;99.90;;;;;;5055933;28;20131;-72
2023/07/10 07:08:10;;;;;;;9.15;3.20;;;19.60;99.90;;;;;;5064707;28;20045;-72
2023/07/10 07:10:43;;;;;;;10.95;3.03;;;19.70;99.90;;;;;;5062371;28;20040;-72
2023/07/10 07:13:09;;;;;;;12.80;3.30;;;19.70;99.90;;;;;;5054391;28;20045;-72
2023/07/10 07:15:36;;;;;;;8.40;3.00;;;19.80;99.90;;;;;;5056119;28;20057;-72
2023/07/10 07:18:03;;;;;;;11.15;3.10;;;19.90;99.90;;;;;;5056189;28;20044;-72
2023/07/10 07:20:30;;;;;;;8.63;2.90;;;19.90;99.90;;;;;;5072404;28;20485;-72
2023/07/10 07:22:55;;;;;;;10.82;3.42;;;20.10;99.90;;;;;;5056825;28;20114;-72
2023/07/10 07:25:21;;;;;;;12.52;3.10;;;20.20;99.90;;;;;;5073948;28;20041;-72
2023/07/10 07:27:47;;;;;;;14.88;3.50;;;20.50;99.90;;;;;;5071800;28;20091;-72
2023/07/10 07:30:13;;;;;;;9.05;2.88;;;21.00;99.90;;;;;;5074011;28;20457;-72
2023/07/10 07:32:45;;;;;;;11.02;3.13;;;21.60;99.90;;;;;;5066912;28;20045;-73
2023/07/10 07:35:10;;;;;;;10.82;3.05;;;22.30;99.90;;;;;;5052804;28;20114;-73
2023/07/10 07:37:36;;;;;;;10.75;3.13;;;22.90;99.90;;;;;;5052549;28;20052;-72
2023/07/10 07:40:02;;;;;;;11.45;2.72;;;23.20;99.90;;;;;;5035168;28;20081;-72
2023/07/10 07:42:28;;;;;;;11.00;3.00;;;23.20;99.90;;;;;;5053996;28;20480;-73
2023/07/10 07:44:57;;;;;;;7.90;2.97;;;23.30;99.90;;;;;;5035698;28;20127;-73
2023/07/10 07:47:28;;;;;;;8.52;2.70;;;23.50;99.90;;;;;;5052554;28;20041;-73
2023/07/10 07:49:54;;;;;;;10.85;3.13;;;24.10;99.90;;;;;;5035706;28;20132;-73
2023/07/10 07:52:19;;;;;;;7.82;2.72;;;24.60;99.90;;;;;;5036263;28;20079;-73
2023/07/10 07:54:46;;;;;;;9.98;2.95;;;24.80;99.90;;;;;;5035185;28;20049;-73
2023/07/10 07:57:11;;;;;;;9.70;2.60;;;25.20;99.90;;;;;;5054290;28;20044;-72
2023/07/10 07:59:37;;;;;;;10.70;2.97;;;25.50;99.90;;;;;;5053221;28;20049;-72
2023/07/10 08:02:03;;;;;;;8.15;2.70;;;25.40;99.90;;;;;;5037850;28;20429;-73
2023/07/10 08:04:28;;;;;;;11.23;3.92;;;25.30;99.90;;;;;;5038761;28;20404;-75
2023/07/10 08:06:54;;;;;;;10.38;3.30;;;25.10;99.90;;;;;;5037908;28;20072;-73
2023/07/10 08:09:20;;;;;;;8.43;3.08;;;25.00;99.90;;;;;;5037845;28;20060;-72
2023/07/10 08:11:45;;;;;;;10.73;3.17;;;25.20;99.90;;;;;;5038767;28;20056;-72
2023/07/10 08:14:11;;;;;;;9.13;3.00;;;25.40;99.90;;;;;;5038954;28;20052;-73
2023/07/10 08:16:37;;;;;;;10.38;2.92;;;26.00;99.90;;;;;;5055945;28;20040;-72
2023/07/10 08:19:02;;;;;;;7.25;2.72;;;26.20;99.90;;;;;;5038710;28;20075;-72
2023/07/10 08:21:28;;;;;;;11.70;3.55;;;26.00;99.90;;;;;;5054068;28;20043;-73
2023/07/10 08:23:54;;;;;;;10.70;3.17;;;25.60;99.90;;;;;;5037842;28;20497;-72
2023/07/10 08:26:19;;;;;;;9.77;3.58;;;25.00;99.90;;;;;;5039627;28;20044;-72
2023/07/10 08:28:45;;;;;;;11.73;2.97;;;24.90;99.90;;;;;;5038440;28;20485;-72
2023/07/10 08:31:17;;;;;;;7.15;2.60;;;25.40;99.90;;;;;;5057254;28;20044;-72
2023/07/10 08:33:43;;;;;;;9.70;3.05;;;25.90;99.90;;;;;;5068931;28;20048;-73
2023/07/10 08:36:08;;;;;;;8.60;3.05;;;26.40;99.90;;;;;;5059541;28;20400;-73
2023/07/10 08:38:39;;;;;;;9.35;2.83;;;26.50;99.90;;;;;;5057356;28;20037;-72
2023/07/10 08:41:31;;;;;;;9.98;2.80;;;26.40;99.90;;;;;;5059489;28;20060;-73
2023/07/10 08:43:57;;;;;;;7.85;2.88;;;26.40;99.90;;;;;;5053971;28;20049;-73
2023/07/10 08:46:27;;;;;;;11.05;3.60;;;26.20;99.90;;;;;;5058399;28;20366;-72
2023/07/10 08:49:31;;;;;;;10.80;3.10;;;26.20;99.90;;;;;;5058037;28;20060;-73
2023/07/10 08:52:03;;;;;;;12.23;2.83;;;26.10;99.90;;;;;;5075759;28;20071;-74
2023/07/10 08:54:28;;;;;;;9.23;2.53;;;26.50;99.90;;;;;;5075805;28;20075;-74
2023/07/10 08:57:00;;;;;;;8.77;2.90;;;27.00;99.90;;;;;;5053269;28;20099;-73
2023/07/10 08:59:50;;;;;;;8.23;2.67;;;26.80;99.90;;;;;;5040576;28;20052;-73
2023/07/10 09:02:40;;;;;;;7.70;3.20;;;26.00;99.90;;;;;;5057962;28;20136;-73
2023/07/10 09:05:29;;;;;;;11.50;2.97;;;25.60;99.90;;;;;;5076239;28;20067;-74
2023/07/10 09:07:59;;;;;;;9.80;3.50;;;25.80;99.90;;;;;;5057630;28;20050;-73
2023/07/10 09:10:49;;;;;;;10.07;3.45;;;26.20;99.90;;;;;;5057843;28;20447;-74
2023/07/10 09:13:40;;;;;;;7.72;3.03;;;26.40;99.90;;;;;;5073338;28;20562;-74
2023/07/10 09:16:18;;;;;;;10.70;3.25;;;26.40;99.90;;;;;;5075793;28;20059;-73
2023/07/10 09:18:55;;;;;;;11.85;3.60;;;26.00;99.90;;;;;;5037344;28;20508;-73
2023/07/10 09:21:25;;;;;;;9.45;3.20;;;25.80;99.90;;;;;;5054726;28;20049;-73
2023/07/10 09:23:51;;;;;;;11.30;3.28;;;25.70;99.90;;;;;;5054199;28;20091;-73
2023/07/10 09:26:20;;;;;;;10.45;3.05;;;25.90;99.90;;;;;;5036652;28;20069;-73
2023/07/10 09:29:00;;;;;;;8.70;3.00;;;26.20;99.90;;;;;;5037471;28;20044;-73
2023/07/10 09:31:48;;;;;;;10.35;3.92;;;26.10;99.90;;;;;;5075725;28;20049;-74
2023/07/10 09:34:23;;;;;;;9.63;3.10;;;26.00;99.90;;;;;;5075146;28;20076;-73
2023/07/10 09:36:51;;;;;;;9.43;2.72;;;25.80;99.90;;;;;;5057390;28;20119;-73
2023/07/10 09:39:16;;;;;;;8.40;2.78;;;25.40;99.90;;;;;;5057328;28;20155;-73
2023/07/10 09:41:44;;;;;;;7.80;2.67;;;25.10;99.90;;;;;;5056445;28;20128;-73
2023/07/10 09:44:18;;;;;;;8.35;3.08;;;24.80;99.90;;;;;;5074982;28;20041;-73
2023/07/10 09:46:44;;;;;;;9.73;2.70;;;24.70;99.90;;;;;;5073726;28;20128;-73
2023/07/10 09:49:21;;;;;;;9.18;2.80;;;24.80;99.90;;;;;;5075760;28;20040;-73
2023/07/10 09:52:00;;;;;;;7.85;2.70;;;24.80;99.90;;;;;;5056237;28;20049;-73
2023/07/10 09:54:53;;;;;;;9.25;2.67;;;24.80;99.90;;;;;;5057673;28;20048;-72
2023/07/10 09:57:19;;;;;;;8.05;2.58;;;24.70;99.90;;;;;;5043268;28;20048;-73
2023/07/10 09:59:50;;;;;;;8.95;2.67;;;25.20;99.90;;;;;;5075796;28;20047;-73
2023/07/10 10:02:43;;;;;;;11.05;2.40;;;25.80;99.90;;;;;;5056147;28;20466;-73
2023/07/10 10:05:12;;;;;;;10.10;2.85;;;26.40;99.90;;;;;;5056835;28;20048;-73
2023/07/10 10:07:43;;;;;;;6.55;2.50;;;26.50;99.90;;;;;;5074046;28;20044;-73
2023/07/10 10:10:25;;;;;;;8.48;2.55;;;26.40;99.90;;;;;;5055524;28;20032;-73
2023/07/10 10:13:09;;;;;;;10.10;2.63;;;26.10;99.90;;;;;;5056361;28;20071;-73
2023/07/10 10:15:51;;;;;;;11.68;3.15;;;25.60;99.90;;;;;;5072521;28;20454;-75
2023/07/10 10:18:33;;;;;;;7.10;2.25;;;25.90;99.90;;;;;;5045360;28;20041;-76
2023/07/10 10:21:01;;;;;;;5.97;2.20;;;25.70;99.70;;;;;;5074332;28;20041;-77
2023/07/10 10:23:33;;;;;;;7.15;2.13;;;25.90;99.80;;;;;;5055375;28;20096;-72
2023/07/10 10:26:18;;;;;;;6.38;2.40;;;26.60;99.90;;;;;;5036003;28;20093;-75
2023/07/10 10:28:49;;;;;;;9.00;2.53;;;27.20;99.30;;;;;;5035763;28;20040;-74
2023/07/10 10:31:20;;;;;;;5.65;1.90;;;27.70;98.40;;;;;;5036549;28;20044;-74
2023/07/10 10:34:12;;;;;;;9.25;1.92;;;28.00;96.40;;;;;;5035650;28;20093;-75
2023/07/10 10:37:09;;;;;;;5.93;2.20;;;28.10;96.70;;;;;;5051602;28;20480;-73
2023/07/10 10:39:35;;;;;;;;;;;28.20;96.60;;;;;;5070992;28;20044;-72
2023/07/10 10:42:09;;;;;;;9.10;2.33;;;27.80;96.90;;;;;;5055585;28;20372;-73
2023/07/10 10:45:02;;;;;;;8.18;1.95;;;27.80;96.80;;;;;;5071526;28;20480;-76
2023/07/10 10:47:33;;;;;;;4.65;1.73;;;28.10;95.70;;;;;;5056710;28;20052;-75
2023/07/10 10:50:27;;;;;;;7.78;2.03;;;28.00;96.10;;;;;;5035709;28;20048;-74
2023/07/10 10:53:14;;;;;;;7.30;2.22;;;27.80;96.40;;;;;;5058169;28;20049;-71
2023/07/10 10:55:59;;;;;;;8.45;2.13;;;28.10;96.50;;;;;;5043854;28;20126;-73
2023/07/10 10:58:34;;;;;;;5.75;2.10;;;28.40;96.80;;;;;;5071856;28;20050;-72
2023/07/10 11:01:30;;;;;;;7.10;1.90;;;28.50;97.20;;;;;;5073215;28;20119;-71
2023/07/10 11:04:02;;;;;;;6.53;2.20;;;28.40;96.00;;;;;;5062046;28;20102;-70
2023/07/10 11:06:38;;;;;;;5.45;1.73;;;28.30;96.30;;;;;;5042525;28;20041;-71
2023/07/10 11:09:11;;;;;;;8.18;2.05;;;28.00;96.50;;;;;;5034200;28;20494;-70
2023/07/10 11:11:39;;;;;;;7.90;2.15;;;27.60;96.70;;;;;;5048886;28;20032;-72
2023/07/10 11:14:06;;;;;;;7.05;1.83;;;27.70;96.30;;;;;;5069232;28;20048;-74
2023/07/10 11:16:34;;;;;;;6.82;1.95;;;27.60;96.90;;;;;;5054042;28;20059;-73
2023/07/10 11:19:02;;;;;;;7.25;2.50;;;27.50;97.00;;;;;;5053585;28;20071;-74
2023/07/10 11:21:29;;;;;;;8.43;1.75;;;27.50;97.40;;;;;;5055223;28;20150;-74
2023/07/10 11:23:54;;;;;;;6.65;2.13;;;27.80;97.20;;;;;;5072452;28;20444;-74
2023/07/10 11:26:22;;;;;;;5.68;2.10;;;28.10;96.60;;;;;;5053995;28;20109;-74
2023/07/10 11:28:56;;;;;;;6.60;2.05;;;28.20;97.00;;;;;;5072358;28;20044;-73
2023/07/10 11:31:30;;;;;;;6.03;1.80;;;28.50;97.40;;;;;;5054651;28;20056;-72
2023/07/10 11:34:05;;;;;;;5.55;1.70;;;28.80;95.30;;;;;;5046726;28;20411;-73
2023/07/10 11:36:34;;;;;;;5.78;1.92;;;28.80;94.70;;;;;;5062405;28;20041;-76
2023/07/10 11:39:05;;;;;;;5.60;1.60;;;28.60;94.50;;;;;;5067598;28;20082;-74
2023/07/10 11:41:59;;;;;;;7.00;1.88;;;28.40;94.20;;;;;;5072184;28;20040;-74
2023/07/10 11:44:31;;;;;;;6.40;1.88;;;28.50;94.90;;;;;;5037933;28;20053;-73
2023/07/10 11:47:06;;;;;;;6.57;2.00;;;28.50;96.00;;;;;;5036936;28;20045;-76
2023/07/10 11:50:07;;;;;;;7.10;2.10;;;28.80;94.50;;;;;;5034077;28;20095;-72
2023/07/10 11:52:33;;;;;;;8.90;2.45;;;28.10;94.10;;;;;;5006631;28;20049;-75
2023/07/10 11:55:00;;;;;;;6.03;1.83;;;28.00;95.40;;;;;;5039909;28;20049;-73
2023/07/10 11:57:32;;;;;;;6.60;2.08;;;28.20;95.40;;;;;;5066848;28;20075;-73
2023/07/10 12:00:24;;;;;;;8.43;2.30;;;28.30;94.50;;;;;;5053518;28;20472;-73
2023/07/10 12:02:53;;;;;;;8.07;2.08;;;27.60;94.80;;;;;;5053743;28;20077;-70
2023/07/10 12:05:29;;;;;;;7.47;2.10;;;27.20;95.20;;;;;;5054162;28;20041;-72
2023/07/10 12:08:01;;;;;;;7.88;2.25;;;27.00;95.80;;;;;;5070806;28;20037;-72
2023/07/10 12:10:30;;;;;;;6.82;1.70;;;27.00;95.20;;;;;;5071524;28;20484;-72
2023/07/10 12:13:09;;;;;;;5.95;1.65;;;27.00;94.10;;;;;;5061610;28;20033;-74
2023/07/10 12:15:36;;;;;;;6.05;1.63;;;27.10;94.30;;;;;;5051772;28;20483;-73
2023/07/10 12:18:07;;;;;;;6.88;1.77;;;27.20;94.90;;;;;;5036150;28;20041;-73
2023/07/10 12:20:34;;;;;;;6.53;1.60;;;27.20;94.00;;;;;;5033081;28;20077;-73
2023/07/10 12:23:11;;;;;;;7.07;1.67;;;27.30;92.90;;;;;;5048398;28;20110;-72
2023/07/10 12:25:36;;;;;;;4.97;1.33;;;27.40;92.90;;;;;;5051382;28;20052;-73
2023/07/10 12:28:09;;;;;;;6.38;1.40;;;27.10;92.00;;;;;;5071105;28;20033;-74
2023/07/10 12:30:35;;;;;;;8.77;1.55;;;27.10;92.00;;;;;;5050230;28;20174;-74
2023/07/10 12:33:01;;;;;;;6.82;2.00;;;26.90;92.00;;;;;;5033349;28;20048;-73
2023/07/10 12:35:37;;;;;;;4.65;1.70;;;26.90;92.50;;;;;;5034788;28;20060;-74
2023/07/10 12:38:07;;;;;;;4.13;1.40;;;26.70;92.20;;;;;;5034723;28;20048;-73
2023/07/10 12:40:34;;;;;;;3.70;0.95;;;26.80;88.50;;;;;;5037112;28;20072;-75
2023/07/10 12:43:16;;;;;;;5.10;1.08;;;26.70;88.40;;;;;;5049676;28;20044;-75
2023/07/10 12:45:42;;;;;;;3.00;0.90;;;26.30;88.70;;;;;;5052965;28;20051;-74
2023/07/10 12:48:13;;;;;;;2.95;0.90;;;26.00;82.60;;;;;;5059992;28;20036;-74
2023/07/10 12:50:46;;;;;;;3.60;0.93;;;25.50;82.70;;;;;;5044331;28;20520;-72
2023/07/10 12:53:22;;;;;;;3.22;0.90;;;25.50;83.80;;;;;;5051449;28;20049;-73
2023/07/10 12:55:52;;;;;;;3.60;1.23;;;25.50;84.80;;;;;;5043903;28;20072;-73
2023/07/10 12:58:19;;;;;;;3.75;0.90;;;25.60;84.40;;;;;;5053648;28;20045;-73
2023/07/10 13:00:56;;;;;;;4.95;1.10;;;25.80;83.20;;;;;;5069583;28;20037;-72